createdAt,value
2019-03-09T00:01:22.312Z,51.2
2019-03-09T00:06:27.489Z,51.1
2019-03-09T00:11:32.516Z,51
2019-03-09T00:16:38.198Z,51
2019-03-09T00:21:43.213Z,51
2019-03-09T00:26:48.537Z,50.9
2019-03-09T00:31:54.592Z,51
2019-03-09T00:37:00.535Z,51.6
2019-03-09T00:42:05.561Z,51
2019-03-09T00:47:10.668Z,50.8
2019-03-09T00:52:14.802Z,50.8
2019-03-09T00:57:20.133Z,51.4
2019-03-09T01:02:25.358Z,50.7
2019-03-09T01:07:31.710Z,50.6
2019-03-09T01:12:37.000Z,50.6
2019-03-09T01:17:42.113Z,50.6
2019-03-09T01:22:47.041Z,50.5
2019-03-09T01:27:52.643Z,50.5
2019-03-09T01:32:57.929Z,50.3
2019-03-09T01:38:03.164Z,50.3
2019-03-09T01:43:08.727Z,50.2
2019-03-09T01:48:14.087Z,50.2
2019-03-09T01:53:20.063Z,50.2
2019-03-09T01:58:25.348Z,50.2
2019-03-09T02:03:30.424Z,50.1
2019-03-09T02:08:35.836Z,50.8
2019-03-09T02:13:41.357Z,50.1
2019-03-09T02:18:46.808Z,50
2019-03-09T02:23:51.940Z,50
2019-03-09T02:28:57.612Z,50
2019-03-09T02:34:03.248Z,50
2019-03-09T02:39:08.637Z,50
2019-03-09T02:44:14.612Z,50
2019-03-09T02:49:20.606Z,50
2019-03-09T02:54:25.537Z,50
2019-03-09T02:59:30.689Z,50
2019-03-09T03:04:36.357Z,50
2019-03-09T03:09:41.558Z,50
2019-03-09T03:14:47.384Z,50
2019-03-09T03:19:53.396Z,50
2019-03-09T03:24:58.628Z,50
2019-03-09T03:30:03.782Z,50
2019-03-09T03:35:09.304Z,50
2019-03-09T03:40:15.140Z,50
2019-03-09T03:45:20.135Z,50
2019-03-09T03:50:25.254Z,50.1
2019-03-09T03:55:30.892Z,50.1
2019-03-09T04:00:36.626Z,50
2019-03-09T04:05:41.813Z,50
2019-03-09T04:10:47.616Z,50.1
2019-03-09T04:15:51.822Z,50.1
2019-03-09T04:20:56.933Z,50.1
2019-03-09T04:26:02.771Z,50.1
2019-03-09T04:31:08.229Z,50.1
2019-03-09T04:36:13.309Z,50
2019-03-09T04:41:18.455Z,50.1
2019-03-09T04:46:23.453Z,50
2019-03-09T04:51:28.571Z,50
2019-03-09T05:01:37.777Z,50
2019-03-09T05:06:42.777Z,50
2019-03-09T05:11:48.308Z,50
2019-03-09T05:16:53.606Z,49.9
2019-03-09T05:21:59.046Z,50
2019-03-09T05:27:04.127Z,49.9
2019-03-09T05:32:09.684Z,50
2019-03-09T05:37:14.901Z,49.9
2019-03-09T05:42:21.183Z,49.9
2019-03-09T05:47:26.111Z,49.9
2019-03-09T05:52:31.774Z,49.9
2019-03-09T05:57:37.227Z,49.9
2019-03-09T06:02:42.248Z,49.8
2019-03-09T06:07:47.271Z,49.8
2019-03-09T06:12:52.669Z,49.8
2019-03-09T06:17:58.617Z,49.8
2019-03-09T06:23:04.240Z,49.7
2019-03-09T06:28:10.076Z,49.7
2019-03-09T06:33:15.248Z,49.7
2019-03-09T06:38:20.206Z,49.7
2019-03-09T06:43:25.539Z,49.6
2019-03-09T06:48:31.062Z,49.6
2019-03-09T06:53:36.859Z,49.6
2019-03-09T06:58:42.389Z,49.7
2019-03-09T07:03:48.214Z,49.6
2019-03-09T07:08:53.712Z,49.6
2019-03-09T07:13:58.812Z,49.6
2019-03-09T07:19:03.877Z,49.5
2019-03-09T07:24:09.012Z,49.6
2019-03-09T07:29:13.980Z,49.5
2019-03-09T07:34:19.189Z,49.6
2019-03-09T07:39:25.285Z,49.4
2019-03-09T07:44:30.661Z,49.5
2019-03-09T07:49:36.766Z,49.4
2019-03-09T07:54:43.045Z,49.3
2019-03-09T07:59:48.093Z,49.3
2019-03-09T08:04:53.370Z,49.4
2019-03-09T08:09:58.544Z,49.3
2019-03-09T08:15:05.273Z,49.3
2019-03-09T08:20:12.795Z,49.3
2019-03-09T08:25:18.342Z,49.2
2019-03-09T08:30:23.454Z,49.3
2019-03-09T08:35:28.732Z,49.2
2019-03-09T08:40:34.264Z,49.3
2019-03-09T08:45:40.377Z,49.4
2019-03-09T08:50:45.787Z,49.4
2019-03-09T08:55:51.116Z,49.4
2019-03-09T09:00:58.857Z,49.5
2019-03-09T09:06:04.150Z,49.7
2019-03-09T09:11:09.312Z,49.6
2019-03-09T09:16:15.141Z,49.6
2019-03-09T09:21:20.537Z,49.6
2019-03-09T09:26:25.992Z,49.7
2019-03-09T09:31:31.357Z,49.7
2019-03-09T09:36:36.428Z,49.7
2019-03-09T09:41:41.300Z,49.7
2019-03-09T09:46:46.405Z,49.7
2019-03-09T09:51:51.308Z,49.7
2019-03-09T09:56:56.380Z,49.7
2019-03-09T10:02:01.331Z,49.6
2019-03-09T10:07:06.516Z,49.6
2019-03-09T10:12:11.548Z,49.7
2019-03-09T10:17:17.084Z,49.6
2019-03-09T10:22:22.431Z,49.6
2019-03-09T10:27:28.043Z,49.6
2019-03-09T10:32:33.137Z,49.6
2019-03-09T10:37:39.424Z,49.6
2019-03-09T10:42:44.348Z,49.6
2019-03-09T10:47:49.517Z,49.7
2019-03-09T10:52:55.148Z,50
2019-03-09T10:58:00.543Z,49.7
2019-03-09T11:03:05.569Z,49.7
2019-03-09T11:08:12.776Z,50.4
2019-03-09T11:13:17.713Z,49.7
2019-03-09T11:18:26.258Z,49.8
2019-03-09T11:23:31.512Z,49.7
2019-03-09T11:28:36.663Z,49.8
2019-03-09T11:33:41.725Z,49.8
2019-03-09T11:38:46.937Z,49.8
2019-03-09T11:43:56.639Z,49.8
2019-03-09T11:54:06.789Z,49.9
2019-03-09T11:59:12.192Z,49.8
2019-03-09T12:04:17.280Z,49.7
2019-03-09T12:09:22.465Z,49.7
2019-03-09T12:14:27.483Z,49.8
2019-03-09T12:19:33.083Z,49.7
2019-03-09T12:24:38.252Z,49.8
2019-03-09T12:29:43.649Z,49.8
2019-03-09T12:34:49.475Z,49.8
2019-03-09T12:39:55.447Z,49.8
2019-03-09T12:45:01.255Z,49.8
2019-03-09T12:50:06.726Z,49.9
2019-03-09T12:55:11.921Z,49.9
2019-03-09T13:00:18.042Z,49.9
2019-03-09T13:05:23.530Z,49.9
2019-03-09T13:10:28.862Z,49.9
2019-03-09T13:15:34.223Z,49.9
2019-03-09T13:20:39.388Z,49.9
2019-03-09T13:25:44.933Z,49.9
2019-03-09T13:30:53.231Z,49.9
2019-03-09T13:35:59.040Z,49.9
2019-03-09T13:41:04.485Z,49.9
2019-03-09T13:46:09.403Z,49.9
2019-03-09T13:51:14.510Z,49.9
2019-03-09T13:56:19.637Z,49.9
2019-03-09T14:01:24.929Z,49.9
2019-03-09T14:06:30.606Z,49.9
2019-03-09T14:16:40.468Z,50
2019-03-09T14:21:46.059Z,50
2019-03-09T14:26:52.503Z,50
2019-03-09T14:31:56.925Z,50
2019-03-09T14:37:02.768Z,50
2019-03-09T14:42:08.610Z,50
2019-03-09T14:52:21.242Z,50.1
2019-03-09T14:57:26.348Z,50
2019-03-09T15:02:31.549Z,50
2019-03-09T15:07:37.109Z,50
2019-03-09T15:12:42.457Z,50
2019-03-09T15:17:48.122Z,49.9
2019-03-09T15:22:54.114Z,49.8
2019-03-09T15:27:59.652Z,50
2019-03-09T15:33:05.116Z,50
2019-03-09T15:38:10.682Z,50.5
2019-03-09T15:43:16.453Z,49.9
2019-03-09T15:48:22.277Z,50
2019-03-09T15:53:28.419Z,50
2019-03-09T15:58:38.992Z,49.9
2019-03-09T16:03:34.785Z,50
2019-03-09T16:08:40.043Z,50
2019-03-09T16:13:45.892Z,49.9
2019-03-09T16:18:51.232Z,50
2019-03-09T16:23:57.585Z,50
2019-03-09T16:29:02.536Z,50
2019-03-09T16:34:07.710Z,50
2019-03-09T16:39:15.442Z,50
2019-03-09T16:44:21.276Z,50
2019-03-09T16:49:29.241Z,50
2019-03-09T16:54:38.508Z,50
2019-03-09T16:59:46.157Z,50
2019-03-09T17:04:51.606Z,50
2019-03-09T17:09:56.694Z,50
2019-03-09T17:15:02.181Z,50
2019-03-09T17:20:07.696Z,50
2019-03-09T17:25:12.972Z,50
2019-03-09T17:30:18.582Z,50
2019-03-09T17:35:24.354Z,50
2019-03-09T17:40:29.332Z,50
2019-03-09T17:45:34.335Z,50
2019-03-09T17:50:39.212Z,49.9
2019-03-09T17:55:44.624Z,50
2019-03-09T18:05:54.515Z,49.9
2019-03-09T18:10:59.975Z,50
2019-03-09T18:16:05.144Z,49.9
2019-03-09T18:21:14.498Z,49.9
2019-03-09T18:26:21.726Z,49.9
2019-03-09T18:31:32.169Z,49.9
2019-03-09T18:36:37.188Z,49.9
2019-03-09T18:41:45.077Z,49.9
2019-03-09T18:46:50.212Z,49.9
2019-03-09T18:56:59.881Z,50
2019-03-09T19:07:09.988Z,49.9
2019-03-09T19:12:15.560Z,49.9
2019-03-09T19:17:21.024Z,50.5
2019-03-09T19:22:26.836Z,49.9
2019-03-09T19:27:32.196Z,49.9
2019-03-09T19:32:37.798Z,49.8
2019-03-09T19:37:43.453Z,49.9
2019-03-09T19:42:48.586Z,49.9
2019-03-09T19:47:56.358Z,49.8
2019-03-09T19:53:02.120Z,49.8
2019-03-09T19:58:07.396Z,49.8
2019-03-09T20:03:12.516Z,49.9
2019-03-09T20:08:17.772Z,49.9
2019-03-09T20:13:25.355Z,49.9
2019-03-09T20:18:30.496Z,49.8
2019-03-09T20:23:35.696Z,49.8
2019-03-09T20:28:41.006Z,49.8
2019-03-09T20:33:47.000Z,49.8
2019-03-09T20:38:52.856Z,49.8
2019-03-09T20:43:58.088Z,49.8
2019-03-09T20:49:03.449Z,49.8
2019-03-09T20:54:09.341Z,49.8
2019-03-09T20:59:14.612Z,49.8
2019-03-09T21:04:19.763Z,49.8
2019-03-09T21:09:25.148Z,49.8
2019-03-09T21:14:31.107Z,49.8
2019-03-09T21:19:36.311Z,49.8
2019-03-09T21:24:41.201Z,49.7
2019-03-09T21:29:46.404Z,49.8
2019-03-09T21:34:52.078Z,49.8
2019-03-09T21:39:57.716Z,49.8
2019-03-09T21:45:02.936Z,49.8
2019-03-09T21:50:09.296Z,49.7
2019-03-09T21:55:14.449Z,49.7
2019-03-09T22:00:19.451Z,49.7
2019-03-09T22:05:24.703Z,49.8
2019-03-09T22:10:30.532Z,49.8
2019-03-09T22:15:36.143Z,49.8
2019-03-09T22:20:41.261Z,49.8
2019-03-09T22:25:46.774Z,49.8
2019-03-09T22:30:52.835Z,49.8
2019-03-09T22:41:02.234Z,49.8
2019-03-09T22:46:08.224Z,49.8
2019-03-09T22:51:13.786Z,49.8
2019-03-09T22:56:18.946Z,49.8
2019-03-09T23:01:24.774Z,49.8
2019-03-09T23:06:30.769Z,49.8
2019-03-09T23:11:35.936Z,49.8
2019-03-09T23:16:41.318Z,49.7
2019-03-09T23:21:46.819Z,49.7
2019-03-09T23:26:51.900Z,49.7
2019-03-09T23:31:57.464Z,49.7
2019-03-09T23:37:02.492Z,49.6
2019-03-09T23:42:08.429Z,49.6
2019-03-09T23:47:13.790Z,49.5
2019-03-09T23:52:19.240Z,49.5
2019-03-09T23:57:24.800Z,49.4
